createdAt,value
2023-03-06T00:00:51.098Z,14.70
2023-03-06T00:03:18.818Z,18.67
2023-03-06T00:05:46.455Z,16.60
2023-03-06T00:08:15.326Z,19.05
2023-03-06T00:10:42.893Z,17.95
2023-03-06T00:13:14.219Z,17.80
2023-03-06T00:15:42.023Z,15.75
2023-03-06T00:18:09.519Z,17.98
2023-03-06T00:20:37.229Z,13.85
2023-03-06T00:23:04.705Z,15.25
2023-03-06T00:25:36.747Z,16.33
2023-03-06T00:28:04.226Z,15.95
2023-03-06T00:30:32.097Z,13.95
2023-03-06T00:32:59.524Z,13.75
2023-03-06T00:35:27.022Z,12.57
2023-03-06T00:37:54.521Z,13.75
2023-03-06T00:40:22.564Z,16.25
2023-03-06T00:42:51.444Z,13.50
2023-03-06T00:45:18.928Z,14.60
2023-03-06T00:47:46.395Z,14.05
2023-03-06T00:50:13.859Z,14.38
2023-03-06T00:52:42.075Z,14.23
2023-03-06T00:55:10.358Z,19.42
2023-03-06T00:57:37.871Z,16.52
2023-03-06T01:00:08.640Z,17.02
2023-03-06T01:02:36.179Z,15.57
2023-03-06T01:05:04.015Z,18.60
2023-03-06T01:07:33.998Z,14.43
2023-03-06T01:10:01.653Z,14.88
2023-03-06T01:12:29.110Z,19.45
2023-03-06T01:14:56.731Z,16.73
2023-03-06T01:17:25.491Z,17.27
2023-03-06T01:19:52.949Z,19.45
2023-03-06T01:22:20.414Z,19.75
2023-03-06T01:24:47.854Z,24.17
2023-03-06T01:27:15.318Z,24.08
2023-03-06T01:29:42.790Z,21.13
2023-03-06T01:32:10.261Z,19.10
2023-03-06T01:34:39.055Z,22.45
2023-03-06T01:37:06.586Z,21.48
2023-03-06T01:39:34.038Z,23.90
2023-03-06T01:42:01.548Z,22.35
2023-03-06T01:44:29.005Z,17.13
2023-03-06T01:46:56.482Z,23.83
2023-03-06T01:49:26.672Z,20.33
2023-03-06T01:51:57.089Z,21.00
2023-03-06T01:54:26.606Z,22.65
2023-03-06T01:56:56.445Z,19.83
2023-03-06T01:59:24.831Z,17.52
2023-03-06T02:01:52.302Z,20.30
2023-03-06T02:04:20.180Z,22.75
2023-03-06T02:06:48.832Z,22.20
2023-03-06T02:09:17.642Z,16.30
2023-03-06T02:11:46.309Z,20.25
2023-03-06T02:14:16.200Z,18.50
2023-03-06T02:16:44.155Z,17.33
2023-03-06T02:19:23.081Z,15.00
2023-03-06T02:21:50.792Z,17.15
2023-03-06T02:24:27.930Z,13.88
2023-03-06T02:26:57.801Z,13.02
2023-03-06T02:29:26.995Z,15.07
2023-03-06T02:31:54.490Z,18.17
2023-03-06T02:34:56.664Z,17.13
2023-03-06T02:37:25.999Z,16.13
2023-03-06T02:39:59.584Z,17.08
2023-03-06T02:42:29.815Z,21.35
2023-03-06T02:44:59.694Z,22.63
2023-03-06T02:47:27.174Z,12.90
2023-03-06T02:49:54.630Z,18.98
2023-03-06T02:52:22.226Z,16.95
2023-03-06T02:54:49.694Z,19.20
2023-03-06T02:57:17.148Z,15.65
2023-03-06T02:59:45.965Z,16.00
2023-03-06T03:02:13.404Z,11.60
2023-03-06T03:04:40.965Z,15.23
2023-03-06T03:07:08.891Z,10.77
2023-03-06T03:09:37.239Z,10.50
2023-03-06T03:12:06.432Z,11.73
2023-03-06T03:14:33.953Z,16.00
2023-03-06T03:17:02.788Z,11.73
2023-03-06T03:19:30.256Z,9.23
2023-03-06T03:21:57.838Z,11.38
2023-03-06T03:24:25.500Z,9.02
2023-03-06T03:26:52.997Z,12.30
2023-03-06T03:29:20.749Z,12.18
2023-03-06T03:31:48.234Z,10.40
2023-03-06T03:34:18.889Z,12.65
2023-03-06T03:36:46.606Z,13.38
2023-03-06T03:39:14.258Z,11.35
2023-03-06T03:41:41.731Z,9.93
2023-03-06T03:44:09.250Z,12.52
2023-03-06T03:46:36.890Z,8.88
2023-03-06T03:49:04.488Z,8.85
2023-03-06T03:51:33.509Z,8.50
2023-03-06T03:54:01.057Z,9.40
2023-03-06T03:56:28.562Z,7.30
2023-03-06T03:58:55.997Z,9.30
2023-03-06T04:01:23.512Z,7.32
2023-03-06T04:03:51.252Z,12.52
2023-03-06T04:06:19.225Z,7.72
2023-03-06T04:08:48.024Z,11.30
2023-03-06T04:11:15.548Z,6.68
2023-03-06T04:13:42.970Z,8.55
2023-03-06T04:16:10.514Z,13.57
2023-03-06T04:18:38.011Z,8.38
2023-03-06T04:21:05.778Z,6.65
2023-03-06T04:23:33.526Z,12.98
2023-03-06T04:26:02.396Z,8.88
2023-03-06T04:28:29.865Z,7.32
2023-03-06T04:30:57.334Z,9.43
2023-03-06T04:33:24.958Z,7.47
2023-03-06T04:35:52.486Z,11.27
2023-03-06T04:38:19.999Z,8.80
2023-03-06T04:40:49.621Z,7.57
2023-03-06T04:43:18.677Z,8.70
2023-03-06T04:45:46.126Z,6.95
2023-03-06T04:48:14.662Z,6.38
2023-03-06T04:50:42.453Z,6.00
2023-03-06T04:53:11.026Z,5.90
2023-03-06T04:55:38.733Z,6.25
2023-03-06T04:58:06.247Z,6.30
2023-03-06T05:00:35.165Z,4.53
2023-03-06T05:03:02.844Z,4.57
2023-03-06T05:05:30.494Z,6.05
2023-03-06T05:07:58.326Z,3.72
2023-03-06T05:10:25.887Z,5.35
2023-03-06T05:12:53.360Z,6.05
2023-03-06T05:15:20.906Z,4.25
2023-03-06T05:17:49.820Z,3.88
2023-03-06T05:20:18.025Z,4.38
2023-03-06T05:22:45.705Z,4.70
2023-03-06T05:25:13.182Z,4.07
2023-03-06T05:27:40.774Z,3.53
2023-03-06T05:30:10.716Z,6.05
2023-03-06T05:32:38.221Z,4.05
2023-03-06T05:35:07.962Z,5.68
2023-03-06T05:37:35.495Z,4.13
2023-03-06T05:40:06.685Z,3.25
2023-03-06T05:42:34.164Z,3.47
2023-03-06T05:45:02.476Z,4.30
2023-03-06T05:47:29.943Z,4.88
2023-03-06T05:49:57.396Z,3.55
2023-03-06T05:52:26.326Z,3.58
2023-03-06T05:54:54.982Z,3.67
2023-03-06T05:57:23.939Z,4.25
2023-03-06T05:59:51.981Z,5.07
2023-03-06T06:02:19.976Z,5.93
2023-03-06T06:04:47.485Z,4.05
2023-03-06T06:07:16.080Z,5.95
2023-03-06T06:09:46.288Z,3.90
2023-03-06T06:12:14.839Z,4.78
2023-03-06T06:14:42.386Z,3.50
2023-03-06T06:17:10.429Z,5.22
2023-03-06T06:19:37.868Z,3.75
2023-03-06T06:22:05.788Z,3.55
2023-03-06T06:24:33.417Z,4.63
2023-03-06T06:27:03.961Z,3.90
2023-03-06T06:29:32.036Z,3.53
2023-03-06T06:31:59.980Z,4.22
2023-03-06T06:34:28.609Z,6.35
2023-03-06T06:36:56.054Z,3.95
2023-03-06T06:39:24.471Z,4.85
2023-03-06T06:42:09.722Z,4.18
2023-03-06T06:44:41.584Z,3.33
2023-03-06T06:47:25.820Z,3.72
2023-03-06T06:49:54.635Z,3.72
2023-03-06T06:52:22.340Z,5.95
2023-03-06T06:54:49.888Z,3.67
2023-03-06T06:57:17.965Z,3.05
2023-03-06T06:59:46.749Z,3.55
2023-03-06T07:02:15.741Z,4.68
2023-03-06T07:05:00.190Z,2.92
2023-03-06T07:07:30.525Z,3.22
2023-03-06T07:09:58.002Z,3.88
2023-03-06T07:12:25.505Z,3.17
2023-03-06T07:14:54.273Z,4.90
2023-03-06T07:17:21.792Z,3.15
2023-03-06T07:19:49.209Z,3.50
2023-03-06T07:22:16.749Z,2.22
2023-03-06T07:24:44.222Z,2.15
2023-03-06T07:27:11.685Z,2.35
2023-03-06T07:29:39.151Z,1.73
2023-03-06T07:32:08.133Z,4.03
2023-03-06T07:34:35.596Z,4.63
2023-03-06T07:37:03.135Z,3.88
2023-03-06T07:39:30.756Z,3.42
2023-03-06T07:41:58.788Z,4.82
2023-03-06T07:44:26.233Z,3.70
2023-03-06T07:46:53.960Z,3.22
2023-03-06T07:49:22.965Z,4.18
2023-03-06T07:51:50.466Z,3.92
2023-03-06T07:54:17.903Z,4.03
2023-03-06T07:56:45.363Z,2.25
2023-03-06T07:59:12.930Z,3.20
2023-03-06T08:01:40.406Z,3.67
2023-03-06T08:04:07.927Z,3.63
2023-03-06T08:06:37.137Z,3.55
2023-03-06T08:09:05.039Z,3.05
2023-03-06T08:11:33.280Z,3.88
2023-03-06T08:14:01.275Z,5.70
2023-03-06T08:16:30.386Z,7.72
2023-03-06T08:18:58.499Z,4.35
2023-03-06T08:21:27.859Z,4.50
2023-03-06T08:23:57.126Z,3.63
2023-03-06T08:26:26.760Z,3.88
2023-03-06T08:28:56.596Z,2.55
2023-03-06T08:31:29.346Z,2.38
2023-03-06T08:33:58.141Z,4.13
2023-03-06T08:36:25.823Z,3.47
2023-03-06T08:38:53.808Z,4.32
2023-03-06T08:41:22.733Z,3.30
2023-03-06T08:43:50.766Z,2.28
2023-03-06T08:46:19.102Z,3.38
2023-03-06T08:48:47.801Z,1.85
2023-03-06T08:51:15.628Z,5.20
2023-03-06T08:53:44.387Z,1.95
2023-03-06T08:56:17.220Z,3.47
2023-03-06T08:58:46.265Z,3.20
2023-03-06T09:01:15.384Z,1.73
2023-03-06T09:03:43.332Z,2.58
2023-03-06T09:06:11.371Z,4.40
2023-03-06T09:08:43.025Z,2.22
2023-03-06T09:11:11.379Z,1.58
2023-03-06T09:13:38.998Z,4.10
2023-03-06T09:16:09.001Z,2.90
2023-03-06T09:18:37.245Z,1.20
2023-03-06T09:21:05.446Z,7.38
2023-03-06T09:23:33.326Z,3.00
2023-03-06T09:26:02.368Z,6.63
2023-03-06T09:28:30.178Z,2.85
2023-03-06T09:30:57.958Z,2.78
2023-03-06T09:33:28.774Z,2.88
2023-03-06T09:35:58.700Z,5.20
2023-03-06T09:38:27.940Z,2.75
2023-03-06T09:41:02.807Z,4.57
2023-03-06T09:43:32.575Z,2.92
2023-03-06T09:46:00.525Z,2.33
2023-03-06T09:48:38.127Z,5.03
2023-03-06T09:51:12.101Z,1.80
2023-03-06T09:53:49.640Z,3.40
2023-03-06T09:56:19.278Z,3.83
2023-03-06T09:58:48.858Z,3.30
2023-03-06T10:01:20.006Z,5.85
2023-03-06T10:03:51.027Z,14.25
2023-03-06T10:06:22.536Z,15.15
2023-03-06T10:08:53.707Z,15.63
2023-03-06T10:11:26.296Z,10.18
2023-03-06T10:13:57.399Z,5.90
2023-03-06T10:16:27.927Z,3.20
2023-03-06T10:18:58.450Z,6.50
2023-03-06T10:21:43.866Z,5.18
2023-03-06T10:24:20.211Z,7.93
2023-03-06T10:26:50.821Z,6.22
2023-03-06T10:29:31.723Z,5.13
2023-03-06T10:32:04.196Z,4.63
2023-03-06T10:34:37.629Z,4.38
2023-03-06T10:37:13.527Z,5.43
2023-03-06T10:39:40.997Z,4.30
2023-03-06T10:42:09.417Z,6.82
2023-03-06T10:44:36.916Z,5.40
2023-03-06T10:47:28.509Z,7.63
2023-03-06T10:50:01.035Z,7.30
2023-03-06T10:52:30.906Z,3.10
2023-03-06T10:55:14.434Z,2.72
2023-03-06T10:57:41.882Z,3.35
2023-03-06T11:00:25.898Z,3.13
2023-03-06T11:03:06.444Z,3.03
2023-03-06T11:05:35.214Z,4.20
2023-03-06T11:08:03.147Z,3.90
2023-03-06T11:10:31.959Z,4.10
2023-03-06T11:13:01.413Z,5.75
2023-03-06T11:15:29.424Z,7.85
2023-03-06T11:17:59.866Z,7.00
2023-03-06T11:20:41.327Z,6.15
2023-03-06T11:23:19.362Z,10.18
2023-03-06T11:25:50.272Z,2.47
2023-03-06T11:28:22.822Z,2.77
2023-03-06T11:30:52.330Z,4.18
2023-03-06T11:33:26.449Z,5.63
2023-03-06T11:35:58.857Z,1.63
2023-03-06T11:38:37.072Z,4.20
2023-03-06T11:41:07.331Z,5.55
2023-03-06T11:43:40.865Z,3.08
2023-03-06T11:46:13.114Z,4.20
2023-03-06T11:48:44.745Z,7.05
2023-03-06T11:51:15.451Z,5.13
2023-03-06T11:53:44.322Z,5.75
2023-03-06T11:56:22.914Z,3.15
2023-03-06T11:59:26.081Z,5.90
2023-03-06T12:02:00.657Z,7.45
2023-03-06T12:04:50.977Z,1.95
2023-03-06T12:07:24.831Z,4.32
2023-03-06T12:09:57.299Z,6.07
2023-03-06T12:12:37.877Z,5.13
2023-03-06T12:15:20.226Z,7.60
2023-03-06T12:18:00.007Z,3.53
2023-03-06T12:20:36.377Z,6.13
2023-03-06T12:23:15.287Z,3.95
2023-03-06T12:25:45.592Z,5.07
2023-03-06T12:28:27.957Z,5.13
2023-03-06T12:31:11.504Z,3.75
2023-03-06T12:33:45.748Z,5.00
2023-03-06T12:36:29.569Z,3.03
2023-03-06T12:39:01.747Z,5.47
2023-03-06T12:41:38.934Z,3.95
2023-03-06T12:44:18.255Z,1.98
2023-03-06T12:46:48.078Z,3.65
2023-03-06T12:49:31.098Z,6.20
2023-03-06T12:52:00.939Z,4.85
2023-03-06T12:54:29.720Z,2.85
2023-03-06T12:56:58.991Z,4.95
2023-03-06T12:59:44.528Z,3.08
2023-03-06T13:02:39.951Z,5.47
2023-03-06T13:05:37.072Z,5.50
2023-03-06T13:08:44.365Z,4.35
2023-03-06T13:11:29.505Z,3.60
2023-03-06T13:13:58.434Z,4.20
2023-03-06T13:16:30.217Z,3.60
2023-03-06T13:22:16.494Z,4.90
2023-03-06T13:24:45.450Z,6.05
2023-03-06T13:27:13.543Z,4.47
2023-03-06T13:30:07.791Z,6.45
2023-03-06T13:32:36.330Z,5.53
2023-03-06T13:35:47.315Z,4.93
2023-03-06T13:38:30.735Z,3.10
2023-03-06T13:41:31.596Z,4.00
2023-03-06T13:44:00.213Z,2.90
2023-03-06T13:46:31.030Z,5.78
2023-03-06T13:49:06.793Z,2.47
2023-03-06T13:51:36.757Z,2.75
2023-03-06T13:54:19.716Z,2.55
2023-03-06T13:57:13.923Z,7.60
2023-03-06T14:00:20.664Z,4.15
2023-03-06T14:03:36.131Z,4.50
2023-03-06T14:06:47.897Z,6.50
2023-03-06T14:09:23.561Z,2.25
2023-03-06T14:11:53.788Z,3.88
2023-03-06T14:14:25.024Z,3.72
2023-03-06T14:16:53.602Z,1.88
2023-03-06T14:19:22.464Z,4.45
2023-03-06T14:21:56.688Z,5.95
2023-03-06T14:24:32.705Z,7.45
2023-03-06T14:27:00.164Z,5.10
2023-03-06T14:29:28.715Z,5.07
2023-03-06T14:31:57.923Z,4.93
2023-03-06T14:34:27.509Z,6.78
2023-03-06T14:36:57.336Z,3.50
2023-03-06T14:39:30.634Z,4.90
2023-03-06T14:42:06.973Z,5.60
2023-03-06T14:44:34.466Z,4.78
2023-03-06T14:47:19.245Z,3.35
2023-03-06T14:49:46.887Z,5.57
2023-03-06T14:52:19.872Z,7.53
2023-03-06T14:54:47.694Z,3.35
2023-03-06T14:57:16.578Z,4.07
2023-03-06T14:59:47.523Z,4.88
2023-03-06T15:02:18.636Z,4.90
2023-03-06T15:04:47.810Z,3.78
2023-03-06T15:07:17.632Z,4.28
2023-03-06T15:09:50.013Z,5.55
2023-03-06T15:12:35.610Z,6.15
2023-03-06T15:15:05.002Z,7.90
2023-03-06T15:17:33.324Z,2.85
2023-03-06T15:20:01.403Z,3.25
2023-03-06T15:22:32.055Z,1.92
2023-03-06T15:25:27.671Z,12.73
2023-03-06T15:27:56.494Z,8.38
2023-03-06T15:30:26.886Z,2.78
2023-03-06T15:33:10.043Z,4.07
2023-03-06T15:35:38.545Z,5.43
2023-03-06T15:38:23.671Z,3.05
2023-03-06T15:40:56.999Z,5.43
2023-03-06T15:43:24.465Z,2.60
2023-03-06T15:45:52.276Z,6.25
2023-03-06T15:48:19.713Z,5.40
2023-03-06T15:50:47.231Z,4.25
2023-03-06T15:53:14.726Z,5.85
2023-03-06T15:55:42.237Z,7.72
2023-03-06T15:58:15.706Z,3.97
2023-03-06T16:00:43.416Z,5.22
2023-03-06T16:03:11.799Z,3.33
2023-03-06T16:05:39.681Z,3.40
2023-03-06T16:08:07.578Z,3.28
2023-03-06T16:10:37.673Z,3.35
2023-03-06T16:13:07.312Z,4.65
2023-03-06T16:15:39.687Z,10.25
2023-03-06T16:18:07.780Z,5.82
2023-03-06T16:20:35.356Z,4.43
2023-03-06T16:23:07.838Z,4.93
2023-03-06T16:25:35.382Z,5.10
2023-03-06T16:28:03.349Z,5.18
2023-03-06T16:30:32.326Z,4.07
2023-03-06T16:33:01.712Z,4.00
2023-03-06T16:35:29.388Z,5.05
2023-03-06T16:37:56.933Z,4.18
2023-03-06T16:40:26.891Z,5.38
2023-03-06T16:42:55.274Z,3.97
2023-03-06T16:45:23.569Z,5.82
2023-03-06T16:47:51.469Z,6.28
2023-03-06T16:50:25.077Z,4.65
2023-03-06T16:52:54.097Z,5.80
2023-03-06T16:55:22.012Z,4.55
2023-03-06T16:57:49.633Z,4.03
2023-03-06T17:00:18.686Z,4.47
2023-03-06T17:02:48.759Z,4.72
2023-03-06T17:05:16.307Z,7.90
2023-03-06T17:07:45.519Z,8.40
2023-03-06T17:10:16.485Z,8.00
2023-03-06T17:12:44.777Z,6.10
2023-03-06T17:15:12.332Z,8.75
2023-03-06T17:17:39.847Z,7.07
2023-03-06T17:20:09.028Z,10.98
2023-03-06T17:22:38.610Z,8.93
2023-03-06T17:25:08.725Z,7.00
2023-03-06T17:27:37.147Z,11.43
2023-03-06T17:30:05.413Z,12.73
2023-03-06T17:32:33.245Z,10.18
2023-03-06T17:35:00.809Z,10.35
2023-03-06T17:37:28.316Z,17.55
2023-03-06T17:39:55.816Z,7.95
2023-03-06T17:42:24.585Z,8.05
2023-03-06T17:44:52.970Z,6.03
2023-03-06T17:47:20.471Z,6.57
2023-03-06T17:49:48.051Z,8.55
2023-03-06T17:52:15.701Z,9.88
2023-03-06T17:54:43.902Z,6.90
2023-03-06T17:57:11.378Z,8.50
2023-03-06T17:59:40.256Z,9.23
2023-03-06T18:02:07.737Z,8.43
2023-03-06T18:04:35.274Z,9.43
2023-03-06T18:07:02.741Z,10.45
2023-03-06T18:09:30.347Z,12.57
2023-03-06T18:11:57.832Z,12.68
2023-03-06T18:14:25.323Z,13.93
2023-03-06T18:16:54.158Z,13.85
2023-03-06T18:19:21.652Z,32.95
2023-03-06T18:21:49.171Z,32.40
2023-03-06T18:24:16.729Z,24.23
2023-03-06T18:26:44.182Z,17.60
2023-03-06T18:29:11.739Z,18.10
2023-03-06T18:31:40.253Z,14.13
2023-03-06T18:34:10.945Z,12.95
2023-03-06T18:36:39.536Z,15.60
2023-03-06T18:39:08.826Z,18.23
2023-03-06T18:41:36.951Z,23.23
2023-03-06T18:44:04.976Z,20.27
2023-03-06T18:46:34.364Z,20.50
2023-03-06T18:49:02.367Z,18.08
2023-03-06T18:51:31.813Z,17.58
2023-03-06T18:54:01.684Z,16.83
2023-03-06T18:56:29.481Z,19.02
2023-03-06T18:58:57.309Z,14.55
2023-03-06T19:01:25.493Z,19.10
2023-03-06T19:03:53.213Z,16.60
2023-03-06T19:06:20.728Z,13.48
2023-03-06T19:08:49.555Z,17.98
2023-03-06T19:11:18.148Z,18.05
2023-03-06T19:13:45.882Z,21.65
2023-03-06T19:16:18.055Z,23.75
2023-03-06T19:18:45.691Z,18.48
2023-03-06T19:21:15.207Z,18.20
2023-03-06T19:23:43.142Z,23.13
2023-03-06T19:26:12.013Z,20.13
2023-03-06T19:28:41.243Z,25.98
2023-03-06T19:31:10.529Z,24.13
2023-03-06T19:33:38.535Z,37.88
2023-03-06T19:36:07.375Z,36.00
2023-03-06T19:38:35.090Z,46.40
2023-03-06T19:41:02.805Z,40.63
2023-03-06T19:43:32.173Z,39.80
2023-03-06T19:46:00.641Z,47.45
2023-03-06T19:48:28.150Z,48.63
2023-03-06T19:50:55.636Z,46.85
2023-03-06T19:53:23.130Z,48.25
2023-03-06T19:55:50.606Z,48.40
2023-03-06T19:58:18.171Z,30.70
2023-03-06T20:00:47.073Z,33.03
2023-03-06T20:03:14.544Z,30.38
2023-03-06T20:05:46.899Z,28.27
2023-03-06T20:08:14.383Z,24.92
2023-03-06T20:10:41.814Z,28.60
2023-03-06T20:13:09.323Z,26.70
2023-03-06T20:15:37.056Z,31.35
2023-03-06T20:18:06.377Z,28.95
2023-03-06T20:20:34.165Z,29.60
2023-03-06T20:23:04.500Z,33.72
2023-03-06T20:25:31.999Z,30.80
2023-03-06T20:27:59.529Z,33.97
2023-03-06T20:30:36.678Z,32.70
2023-03-06T20:33:06.774Z,30.10
2023-03-06T20:35:34.265Z,39.75
2023-03-06T20:38:01.863Z,24.83
2023-03-06T20:40:29.381Z,30.13
2023-03-06T20:42:56.872Z,27.90
2023-03-06T20:45:24.351Z,27.15
2023-03-06T20:47:52.057Z,34.70
2023-03-06T20:50:21.097Z,33.25
2023-03-06T20:52:48.770Z,36.33
2023-03-06T20:55:16.365Z,34.55
2023-03-06T20:57:43.911Z,35.63
2023-03-06T21:00:12.851Z,31.65
2023-03-06T21:02:40.345Z,30.02
2023-03-06T21:05:08.943Z,31.83
2023-03-06T21:07:37.861Z,33.47
2023-03-06T21:10:06.448Z,31.63
2023-03-06T21:12:33.969Z,24.63
2023-03-06T21:15:01.543Z,32.13
2023-03-06T21:17:30.455Z,30.63
2023-03-06T21:19:58.404Z,32.95
2023-03-06T21:22:25.975Z,28.77
2023-03-06T21:24:54.842Z,26.88
2023-03-06T21:27:22.398Z,31.23
2023-03-06T21:29:49.853Z,30.10
2023-03-06T21:32:17.414Z,26.50
2023-03-06T21:34:45.273Z,28.17
2023-03-06T21:37:12.802Z,30.02
2023-03-06T21:39:40.285Z,31.23
2023-03-06T21:42:09.231Z,32.63
2023-03-06T21:44:36.999Z,29.17
2023-03-06T21:47:04.484Z,29.08
2023-03-06T21:49:32.040Z,27.63
2023-03-06T21:51:59.557Z,29.88
2023-03-06T21:54:29.357Z,33.33
2023-03-06T21:56:56.908Z,29.05
2023-03-06T21:59:25.766Z,32.38
2023-03-06T22:01:53.287Z,31.20
2023-03-06T22:04:20.804Z,28.58
2023-03-06T22:06:48.286Z,30.63
2023-03-06T22:09:18.995Z,26.35
2023-03-06T22:11:46.536Z,25.63
2023-03-06T22:14:14.918Z,33.35
2023-03-06T22:16:44.045Z,25.77
2023-03-06T22:19:11.807Z,29.83
2023-03-06T22:21:39.500Z,22.67
2023-03-06T22:24:07.963Z,23.40
2023-03-06T22:26:35.593Z,20.90
2023-03-06T22:29:03.177Z,19.65
2023-03-06T22:31:30.778Z,22.33
2023-03-06T22:34:01.659Z,20.73
2023-03-06T22:36:31.342Z,17.27
2023-03-06T22:39:00.127Z,29.05
2023-03-06T22:41:28.194Z,26.75
2023-03-06T22:43:56.775Z,32.10
2023-03-06T22:46:24.392Z,39.20
2023-03-06T22:48:56.919Z,41.80
2023-03-06T22:51:26.132Z,42.60
2023-03-06T22:53:53.810Z,39.90
2023-03-06T22:56:22.389Z,42.90
2023-03-06T22:58:50.089Z,41.28
2023-03-06T23:01:19.715Z,38.15
2023-03-06T23:03:48.808Z,40.58
2023-03-06T23:06:18.202Z,40.35
2023-03-06T23:08:50.305Z,36.53
2023-03-06T23:11:19.496Z,35.47
2023-03-06T23:13:47.462Z,33.38
2023-03-06T23:16:15.165Z,42.92
2023-03-06T23:18:42.894Z,30.00
2023-03-06T23:21:12.194Z,34.95
2023-03-06T23:23:40.091Z,38.45
2023-03-06T23:26:09.603Z,38.05
2023-03-06T23:28:37.151Z,38.50
2023-03-06T23:31:08.036Z,52.00
2023-03-06T23:33:36.011Z,50.42
2023-03-06T23:36:03.794Z,64.07
2023-03-06T23:38:31.349Z,52.40
2023-03-06T23:41:02.629Z,52.90
2023-03-06T23:43:31.710Z,78.75
2023-03-06T23:45:59.727Z,91.28
2023-03-06T23:48:28.022Z,51.22
2023-03-06T23:50:55.554Z,57.17
2023-03-06T23:53:23.248Z,73.55
2023-03-06T23:55:51.435Z,43.00
2023-03-06T23:58:19.846Z,70.93
